Anl Warragul — A8UL6 — position and weather

sailwx.info

Track history (hours):
 
Tides and Currents Weather Stations Pressure Air Temp Water Temp Dewpoint Dewpoint Depression Visibility Wind Speed Wind Dir Waves Ship Positions

Anl Warragul

Last reported at 2017-Oct-16 08:48 UTC. Time now 2017-Oct-18 11:34 UTC.
Position S 37°56' E 149°40'.

Length 262 m; draft 8.9 m.

Type: Cargo ship. MMSI: 636091912.

Date/timePositionNaut miles runAvg speedWind from/ knotsBaromVisibWave heightAir tempDewpointWater temp
2017-Oct-16 08:48S 37°56' E 149°40'514.7
2017-Oct-16 08:28S 37°59' E 149°35'1014.7
2017-Oct-16 07:46S 38°05' E 149°25'414.8
2017-Oct-16 07:30S 38°07' E 149°21'814.7
2017-Oct-16 06:59S 38°12' E 149°13'814.9
2017-Oct-16 06:25S 38°17' E 149°05'715.0
2017-Oct-16 05:59S 38°21' E 148°58'915.3
2017-Oct-16 05:26S 38°26' E 148°49'715.6
2017-Oct-16 04:59S 38°31' E 148°43'815.6
2017-Oct-16 04:30S 38°35' E 148°35'815.6
2017-Oct-16 04:00S 38°40' E 148°27'815.9
2017-Oct-16 03:29S 38°45' E 148°19'816.0
2017-Oct-16 02:59S 38°49' E 148°10'816.2
2017-Oct-16 02:30S 38°51' E 148°00'916.3
2017-Oct-16 01:58S 38°54' E 147°50'816.3
2017-Oct-16 01:29S 38°57' E 147°40'916.3
2017-Oct-16 00:56S 39°01' E 147°30'716.4
2017-Oct-16 00:30S 39°03' E 147°21'2818.1
2017-Oct-15 22:57S 39°13' E 146°47'715.2
2017-Oct-15 22:30S 39°16' E 146°39'814.9
2017-Oct-15 21:59S 39°17' E 146°29'714.9
2017-Oct-15 21:29S 39°17' E 146°20'1614.5
2017-Oct-15 20:24S 39°13' E 146°00'715.5
2017-Oct-15 19:57S 39°09' E 145°52'815.6
2017-Oct-15 19:28S 39°05' E 145°44'715.6
2017-Oct-15 19:00S 39°01' E 145°36'815.6
2017-Oct-15 18:28S 38°58' E 145°26'815.7
2017-Oct-15 17:57S 38°54' E 145°17'815.6
2017-Oct-15 17:27S 38°50' E 145°09'1315.6
2017-Oct-15 16:37S 38°44' E 144°54'1115.1
2017-Oct-15 15:54S 38°38' E 144°42'815.4
2017-Oct-15 15:22S 38°31' E 144°38'13 9.8
2017-Oct-15 14:00S 38°18' E 144°45'1512.8
2017-Oct-15 12:52S 38°06' E 144°55'818.4
2017-Oct-15 12:27S 37°58' E 144°55'613.5
2017-Oct-15 12:00S 37°52' E 144°56'3 6.2
2017-Oct-15 11:27S 37°49' E 144°55'0 0.0
2017-Oct-15 01:54S 37°49' E 144°55'0 0.0
2017-Oct-15 01:30S 37°49' E 144°55'0 0.0
2017-Oct-14 10:54S 37°49' E 144°55'0 0.7
2017-Oct-14 10:30S 37°49' E 144°55'2 3.2
2017-Oct-14 10:00S 37°50' E 144°54'5 9.1
2017-Oct-14 09:31S 37°55' E 144°56'916.5
2017-Oct-14 08:59S 38°04' E 144°55'38711.7
2017-Oct-13 00:00S 38°00' E 153°06'   280 / 191016.710.8 20.013.521.0
2017-Oct-09 11:00S 36°16' E 174°59'510.2
2017-Oct-09 10:29S 36°21' E 175°00'5 9.9
2017-Oct-09 10:00S 36°26' E 175°01'5 9.6
2017-Oct-09 09:30S 36°30' E 174°60'6 9.8
2017-Oct-09 08:53S 36°36' E 174°58'4 9.4
2017-Oct-09 08:28S 36°39' E 174°55'3 7.0
2017-Oct-09 08:00S 36°42' E 174°53'1 1.4
2017-Oct-09 07:30S 36°42' E 174°53'3 5.6
2017-Oct-09 07:00S 36°44' E 174°51'612.0
2017-Oct-09 06:30S 36°50' E 174°50'2 3.5
2017-Oct-09 05:50S 36°50' E 174°47'0 0.0
2017-Oct-09 05:30S 36°50' E 174°47'0 0.0
2017-Oct-09 04:50S 36°50' E 174°47'0 0.0
2017-Oct-09 04:26S 36°50' E 174°47'0 0.0
2017-Oct-09 03:58S 36°50' E 174°47'0 0.0
2017-Oct-09 03:30S 36°50' E 174°47'0 0.0
2017-Oct-09 02:59S 36°50' E 174°47'0 0.0
2017-Oct-09 02:29S 36°50' E 174°47'0 0.0
2017-Oct-09 02:00S 36°50' E 174°47'0 0.0
2017-Oct-09 01:27S 36°50' E 174°47'0 0.0
2017-Oct-09 01:00S 36°50' E 174°47'0 0.0
2017-Oct-09 00:27S 36°50' E 174°47'0 0.0
2017-Oct-09 00:00S 36°50' E 174°47'0 0.0
2017-Oct-08 23:30S 36°50' E 174°47'0 0.0
2017-Oct-08 23:00S 36°50' E 174°47'0 0.0
2017-Oct-08 22:30S 36°50' E 174°47'0 0.0
2017-Oct-08 22:00S 36°50' E 174°47'0 0.0
2017-Oct-08 21:30S 36°50' E 174°47'0 0.0
2017-Oct-08 21:00S 36°50' E 174°47'0 0.0
2017-Oct-08 20:30S 36°50' E 174°47'0 0.0
2017-Oct-08 20:00S 36°50' E 174°47'0 0.0
2017-Oct-08 19:30S 36°50' E 174°47'0 0.0
2017-Oct-08 19:00S 36°50' E 174°47'0 0.5
2017-Oct-08 18:30S 36°50' E 174°47'3 5.3
2017-Oct-08 18:00S 36°48' E 174°49'611.0
2017-Oct-08 17:30S 36°43' E 174°51'3 6.2
2017-Oct-08 17:00S 36°41' E 174°54'3 5.0
2017-Oct-08 16:30S 36°39' E 174°56'3 5.5
2017-Oct-08 16:00S 36°37' E 174°58'3 5.7
2017-Oct-08 15:30S 36°35' E 175°01'1 1.6
2017-Oct-08 15:00S 36°34' E 175°02'2 4.8
2017-Oct-08 14:30S 36°33' E 175°04'5 9.5
2017-Oct-08 14:00S 36°30' E 175°08'5 9.6
2017-Oct-08 13:30S 36°26' E 175°13'5 9.4
2017-Oct-08 13:00S 36°24' E 175°17'3011.0
2017-Oct-08 10:17S 36°13' E 175°52'  
Track history (hours):
 
Tides and Currents Weather Stations Pressure Air Temp Water Temp Dewpoint Dewpoint Depression Visibility Wind Speed Wind Dir Waves Ship Positions

Anl Warragul

Last reported at 2017-Oct-16 08:48 UTC. Time now 2017-Oct-18 11:34 UTC.
Position S 37°56' E 149°40'.

Length 262 m; draft 8.9 m.

Type: Cargo ship. MMSI: 636091912.

Date/timePositionNaut miles runAvg speedWind from/ knotsBaromVisibWave heightAir tempDewpointWater temp
2017-Oct-16 08:48S 37°56' E 149°40'514.7
2017-Oct-16 08:28S 37°59' E 149°35'1014.7
2017-Oct-16 07:46S 38°05' E 149°25'414.8
2017-Oct-16 07:30S 38°07' E 149°21'814.7
2017-Oct-16 06:59S 38°12' E 149°13'814.9
2017-Oct-16 06:25S 38°17' E 149°05'715.0
2017-Oct-16 05:59S 38°21' E 148°58'915.3
2017-Oct-16 05:26S 38°26' E 148°49'715.6
2017-Oct-16 04:59S 38°31' E 148°43'815.6
2017-Oct-16 04:30S 38°35' E 148°35'815.6
2017-Oct-16 04:00S 38°40' E 148°27'815.9
2017-Oct-16 03:29S 38°45' E 148°19'816.0
2017-Oct-16 02:59S 38°49' E 148°10'816.2
2017-Oct-16 02:30S 38°51' E 148°00'916.3
2017-Oct-16 01:58S 38°54' E 147°50'816.3
2017-Oct-16 01:29S 38°57' E 147°40'916.3
2017-Oct-16 00:56S 39°01' E 147°30'716.4
2017-Oct-16 00:30S 39°03' E 147°21'2818.1
2017-Oct-15 22:57S 39°13' E 146°47'715.2
2017-Oct-15 22:30S 39°16' E 146°39'814.9
2017-Oct-15 21:59S 39°17' E 146°29'714.9
2017-Oct-15 21:29S 39°17' E 146°20'1614.5
2017-Oct-15 20:24S 39°13' E 146°00'715.5
2017-Oct-15 19:57S 39°09' E 145°52'815.6
2017-Oct-15 19:28S 39°05' E 145°44'715.6
2017-Oct-15 19:00S 39°01' E 145°36'815.6
2017-Oct-15 18:28S 38°58' E 145°26'815.7
2017-Oct-15 17:57S 38°54' E 145°17'815.6
2017-Oct-15 17:27S 38°50' E 145°09'1315.6
2017-Oct-15 16:37S 38°44' E 144°54'1115.1
2017-Oct-15 15:54S 38°38' E 144°42'815.4
2017-Oct-15 15:22S 38°31' E 144°38'13 9.8
2017-Oct-15 14:00S 38°18' E 144°45'1512.8
2017-Oct-15 12:52S 38°06' E 144°55'818.4
2017-Oct-15 12:27S 37°58' E 144°55'613.5
2017-Oct-15 12:00S 37°52' E 144°56'3 6.2
2017-Oct-15 11:27S 37°49' E 144°55'0 0.0
2017-Oct-15 01:54S 37°49' E 144°55'0 0.0
2017-Oct-15 01:30S 37°49' E 144°55'0 0.0
2017-Oct-14 10:54S 37°49' E 144°55'0 0.7
2017-Oct-14 10:30S 37°49' E 144°55'2 3.2
2017-Oct-14 10:00S 37°50' E 144°54'5 9.1
2017-Oct-14 09:31S 37°55' E 144°56'916.5
2017-Oct-14 08:59S 38°04' E 144°55'38711.7
2017-Oct-13 00:00S 38°00' E 153°06'   280 / 191016.710.8 20.013.521.0
2017-Oct-09 11:00S 36°16' E 174°59'510.2
2017-Oct-09 10:29S 36°21' E 175°00'5 9.9
2017-Oct-09 10:00S 36°26' E 175°01'5 9.6
2017-Oct-09 09:30S 36°30' E 174°60'6 9.8
2017-Oct-09 08:53S 36°36' E 174°58'4 9.4
2017-Oct-09 08:28S 36°39' E 174°55'3 7.0
2017-Oct-09 08:00S 36°42' E 174°53'1 1.4
2017-Oct-09 07:30S 36°42' E 174°53'3 5.6
2017-Oct-09 07:00S 36°44' E 174°51'612.0
2017-Oct-09 06:30S 36°50' E 174°50'2 3.5
2017-Oct-09 05:50S 36°50' E 174°47'0 0.0
2017-Oct-09 05:30S 36°50' E 174°47'0 0.0
2017-Oct-09 04:50S 36°50' E 174°47'0 0.0
2017-Oct-09 04:26S 36°50' E 174°47'0 0.0
2017-Oct-09 03:58S 36°50' E 174°47'0 0.0
2017-Oct-09 03:30S 36°50' E 174°47'0 0.0
2017-Oct-09 02:59S 36°50' E 174°47'0 0.0
2017-Oct-09 02:29S 36°50' E 174°47'0 0.0
2017-Oct-09 02:00S 36°50' E 174°47'0 0.0
2017-Oct-09 01:27S 36°50' E 174°47'0 0.0
2017-Oct-09 01:00S 36°50' E 174°47'0 0.0
2017-Oct-09 00:27S 36°50' E 174°47'0 0.0
2017-Oct-09 00:00S 36°50' E 174°47'0 0.0
2017-Oct-08 23:30S 36°50' E 174°47'0 0.0
2017-Oct-08 23:00S 36°50' E 174°47'0 0.0
2017-Oct-08 22:30S 36°50' E 174°47'0 0.0
2017-Oct-08 22:00S 36°50' E 174°47'0 0.0
2017-Oct-08 21:30S 36°50' E 174°47'0 0.0
2017-Oct-08 21:00S 36°50' E 174°47'0 0.0
2017-Oct-08 20:30S 36°50' E 174°47'0 0.0
2017-Oct-08 20:00S 36°50' E 174°47'0 0.0
2017-Oct-08 19:30S 36°50' E 174°47'0 0.0
2017-Oct-08 19:00S 36°50' E 174°47'0 0.5
2017-Oct-08 18:30S 36°50' E 174°47'3 5.3
2017-Oct-08 18:00S 36°48' E 174°49'611.0
2017-Oct-08 17:30S 36°43' E 174°51'3 6.2
2017-Oct-08 17:00S 36°41' E 174°54'3 5.0
2017-Oct-08 16:30S 36°39' E 174°56'3 5.5
2017-Oct-08 16:00S 36°37' E 174°58'3 5.7
2017-Oct-08 15:30S 36°35' E 175°01'1 1.6
2017-Oct-08 15:00S 36°34' E 175°02'2 4.8
2017-Oct-08 14:30S 36°33' E 175°04'5 9.5
2017-Oct-08 14:00S 36°30' E 175°08'5 9.6
2017-Oct-08 13:30S 36°26' E 175°13'5 9.4
2017-Oct-08 13:00S 36°24' E 175°17'3011.0
2017-Oct-08 10:17S 36°13' E 175°52'  

Dump ship's entire track history